Fortescue, Missouri
Current Conditions -  °F | °C
As of 7:53 PM on Friday 28 Nov 2014 (Local Time) from KFNB Reporting Station
Clear Clear  
Wind Chill: 52°   Ceiling: Unl
Heat Index: 52°   Visibility: 10mi
Dew Point: 34°   Wind: 9mph
Humidity: 50%   Direction: 190°S
Pressure: 29.69"   Gusts: NA
Location:  40.1428°N, 95.3614°W
Report Text: KFNB 290153Z AUTO 19008KT 10SM CLR 11/01 A2969 RMK AO2 SLP058 T01110011
Loading
Personal Weather Stations






























Interactive Weather Map New forecast layout! Learn more

10-Day Weather Forecast

Advertisements
Track Severe Weather on mobile